Paynesville, MN

1:04 AM CST on December 27, 2014 (GMT -0600)
Litchfield Municipal | Change Station
CLOSE
Current Station
Airport
Location: Litchfield,
Elevation: 1138 ft
Nearby Weather Stations

Elev 1138 ft 45.09 °N, 94.51 °W | Updated 11 minutes ago

Overcast
Overcast
25 °F
Feels Like 14 °F
N
12
Wind Variable Wind from North

Today
High -- | Low -- °F
--% Chance of Precip.
Yesterday
High -- | Low -- °F
Precip. -- in
7:57 AM 4:42 PM
Waxing Crescent, 33% visible
Pressure 30.07 in
Visibility 2.0 miles
Clouds Mostly Cloudy 800 ft
Overcast 1400 ft
Windchill 14 °F
Dew Point 23 °F
Humidity 93%
Rainfall 0.00 in
Snow Depth Not available.
UV 0 out of 12
Pollen .10 out of 12
Air Quality Not available.
Flu Activity Not available.
METAR KLJF 270653Z AUTO 35010KT 2SM -SN BKN008 OVC014 M04/M05 A3007 RMK AO2

More Conditions Fewer Conditions

Pressure 30.07 in
Visibility 2.0 miles
Clouds Mostly Cloudy 800 ft
Overcast 1400 ft
Windchill 14 °F
Dew Point 23 °F
Humidity 93%
Rainfall 0.00 in
Snow Depth Not available.
UV 0 out of 12
Pollen .10 out of 12
Air Quality Not available.
Flu Activity Not available.
METAR KLJF 270653Z AUTO 35010KT 2SM -SN BKN008 OVC014 M04/M05 A3007 RMK AO2

More Conditions Fewer Conditions

10-Day Weather Forecast

Almanac

Astronomy

Dec. 27, 2014 Rise Set
Actual Time
Civil Twilight
Nautical Twilight
Astronomical Twilight
Moon
Length of Visible Light
Length of Day
Tomorrow will be .
, % of the Moon is Illuminated

Today's Extremes

State Highs State Lows

Community

WunderPhotos

Upload Photos

1,780,863 photos uploaded!

WunderBlogs® & News

Nearby

Air Quality

  Air Quality AQ Index Pollutant
Not available.

Snow Depth

Station Depth Elevation

Earthquake Activity

City Distance Mag. Time & Date
Minimum magnitude displayed is 2.5.

Coastal Water Temperatures

Place Temperature

Nearby Weather Stations